Terminal Aerodrome Forecast
Issued by NWS

Home | Current Version | Previous Version | Text Only | Print | Product List | Glossary On
Versions: 1 2 3 4 5 6 7 8 9 10 11 12 13 14 15 16 17
000
FTUS41 KBTV 142323
TAFMSS
TAF
KMSS 142323Z 1500/1524 23007KT P6SM FEW250
     FM150900 23003KT P6SM FEW070 SCT120
     FM151400 VRB03KT P6SM SCT035 BKN070
     FM151800 19005KT P6SM OVC030
     FM151900 19006KT P6SM VCSH OVC025=

USA.gov is the U.S. government's official web portal to all federal, state and local government web resources and services.